createdAt,value
2019-02-21T00:00:50.041Z,9.16
2019-02-21T00:01:50.019Z,9.14
2019-02-21T00:02:50.011Z,9.15
2019-02-21T00:03:49.997Z,9.11
2019-02-21T00:04:49.996Z,9.10
2019-02-21T00:05:49.976Z,9.08
2019-02-21T00:06:49.974Z,9.06
2019-02-21T00:07:49.953Z,9.04
2019-02-21T00:08:49.945Z,9.03
2019-02-21T00:09:49.936Z,9.03
2019-02-21T00:10:49.920Z,9.01
2019-02-21T00:11:49.911Z,9.00
2019-02-21T00:12:49.909Z,8.99
2019-02-21T00:13:49.892Z,8.98
2019-02-21T00:14:49.877Z,8.95
2019-02-21T00:15:49.868Z,8.97
2019-02-21T00:16:49.855Z,8.95
2019-02-21T00:17:49.845Z,8.94
2019-02-21T00:18:49.843Z,8.95
2019-02-21T00:19:49.834Z,8.95
2019-02-21T00:20:49.815Z,8.95
2019-02-21T00:21:49.800Z,8.93
2019-02-21T00:22:49.788Z,8.94
2019-02-21T00:23:49.779Z,8.93
2019-02-21T00:24:49.785Z,8.93
2019-02-21T00:25:49.756Z,8.91
2019-02-21T00:26:49.747Z,8.90
2019-02-21T00:27:49.737Z,8.89
2019-02-21T00:28:49.722Z,8.88
2019-02-21T00:29:49.711Z,8.88
2019-02-21T00:30:49.714Z,8.86
2019-02-21T00:31:49.694Z,8.87
2019-02-21T00:32:49.679Z,8.87
2019-02-21T00:33:49.668Z,8.86
2019-02-21T00:34:49.656Z,8.85
2019-02-21T00:35:49.645Z,8.85
2019-02-21T00:36:49.645Z,8.84
2019-02-21T00:37:49.624Z,8.82
2019-02-21T00:38:49.614Z,8.82
2019-02-21T00:39:49.602Z,8.81
2019-02-21T00:40:49.591Z,8.79
2019-02-21T00:41:49.582Z,8.79
2019-02-21T00:42:49.581Z,8.77
2019-02-21T00:43:49.559Z,8.77
2019-02-21T00:44:49.549Z,8.76
2019-02-21T00:45:49.540Z,8.76
2019-02-21T00:46:49.573Z,8.76
2019-02-21T00:47:49.516Z,8.75
2019-02-21T00:48:49.520Z,8.76
2019-02-21T00:49:49.494Z,8.74
2019-02-21T00:50:49.485Z,8.73
2019-02-21T00:51:49.472Z,8.73
2019-02-21T00:52:49.463Z,8.71
2019-02-21T00:53:49.452Z,8.70
2019-02-21T00:54:49.456Z,8.70
2019-02-21T00:55:49.430Z,8.69
2019-02-21T00:56:49.419Z,8.68
2019-02-21T00:57:49.408Z,8.67
2019-02-21T00:58:49.395Z,8.66
2019-02-21T00:59:50.888Z,8.64
2019-02-21T01:00:49.388Z,8.63
2019-02-21T01:01:49.370Z,8.63
2019-02-21T01:02:49.353Z,8.60
2019-02-21T01:03:49.344Z,8.60
2019-02-21T01:04:49.332Z,8.58
2019-02-21T01:05:49.323Z,8.59
2019-02-21T01:06:49.321Z,8.57
2019-02-21T01:07:49.300Z,8.56
2019-02-21T01:08:49.291Z,8.57
2019-02-21T01:09:49.280Z,8.54
2019-02-21T01:10:49.287Z,8.53
2019-02-21T01:11:49.262Z,8.52
2019-02-21T01:12:49.259Z,8.52
2019-02-21T01:13:49.245Z,8.49
2019-02-21T01:14:49.225Z,8.48
2019-02-21T01:15:49.215Z,8.47
2019-02-21T01:16:49.218Z,8.46
2019-02-21T01:17:49.196Z,8.46
2019-02-21T01:18:49.200Z,8.44
2019-02-21T01:19:49.177Z,8.44
2019-02-21T01:20:49.162Z,8.42
2019-02-21T01:21:49.152Z,8.41
2019-02-21T01:22:49.148Z,8.40
2019-02-21T01:23:49.131Z,8.41
2019-02-21T01:24:49.150Z,8.40
2019-02-21T01:25:49.114Z,8.40
2019-02-21T01:26:49.125Z,8.42
2019-02-21T01:27:49.107Z,8.42
2019-02-21T01:28:49.080Z,8.41
2019-02-21T01:29:49.073Z,8.41
2019-02-21T01:30:56.730Z,8.41
2019-02-21T01:31:50.046Z,8.40
2019-02-21T01:32:49.071Z,8.40
2019-02-21T01:33:49.032Z,8.39
2019-02-21T01:34:49.023Z,8.40
2019-02-21T01:35:49.008Z,8.40
2019-02-21T01:36:49.008Z,8.40
2019-02-21T01:37:48.993Z,8.39
2019-02-21T01:38:49.016Z,8.38
2019-02-21T01:39:48.964Z,8.37
2019-02-21T01:40:48.954Z,8.38
2019-02-21T01:41:48.944Z,8.37
2019-02-21T01:42:48.958Z,8.39
2019-02-21T01:43:48.931Z,8.38
2019-02-21T01:44:48.911Z,8.38
2019-02-21T01:45:48.900Z,8.38
2019-02-21T01:46:48.893Z,8.39
2019-02-21T01:47:48.880Z,8.37
2019-02-21T01:48:48.884Z,8.39
2019-02-21T01:49:48.861Z,8.40
2019-02-21T01:50:48.861Z,8.40
2019-02-21T01:51:48.874Z,8.41
2019-02-21T01:52:48.831Z,8.41
2019-02-21T01:53:48.822Z,8.42
2019-02-21T01:54:48.827Z,8.43
2019-02-21T01:55:48.798Z,8.44
2019-02-21T01:56:48.785Z,8.45
2019-02-21T01:57:48.789Z,8.46
2019-02-21T01:58:48.765Z,8.46
2019-02-21T01:59:48.755Z,8.48
2019-02-21T02:00:48.757Z,8.48
2019-02-21T02:01:48.787Z,8.50
2019-02-21T02:02:48.720Z,8.50
2019-02-21T02:03:48.712Z,8.51
2019-02-21T02:04:48.711Z,8.53
2019-02-21T02:05:48.724Z,8.53
2019-02-21T02:06:48.693Z,8.54
2019-02-21T02:07:48.683Z,8.56
2019-02-21T02:08:48.677Z,8.57
2019-02-21T02:09:48.663Z,8.58
2019-02-21T02:10:48.636Z,8.59
2019-02-21T02:11:48.630Z,8.61
2019-02-21T02:12:48.633Z,8.64
2019-02-21T02:13:48.607Z,8.65
2019-02-21T02:14:48.596Z,8.67
2019-02-21T02:15:48.589Z,8.68
2019-02-21T02:16:48.573Z,8.70
2019-02-21T02:17:48.567Z,8.71
2019-02-21T02:18:48.564Z,8.73
2019-02-21T02:19:48.541Z,8.75
2019-02-21T02:20:48.549Z,8.75
2019-02-21T02:21:48.519Z,8.77
2019-02-21T02:22:48.509Z,8.78
2019-02-21T02:23:48.508Z,8.80
2019-02-21T02:24:48.506Z,8.81
2019-02-21T02:25:48.497Z,8.84
2019-02-21T02:26:48.467Z,8.86
2019-02-21T02:27:48.456Z,8.86
2019-02-21T02:28:48.445Z,8.89
2019-02-21T02:29:48.441Z,8.90
2019-02-21T02:30:48.439Z,8.93
2019-02-21T02:31:48.427Z,8.95
2019-02-21T02:32:48.405Z,8.97
2019-02-21T02:33:48.392Z,8.98
2019-02-21T02:34:48.383Z,9.00
2019-02-21T02:35:48.371Z,9.00
2019-02-21T02:36:48.395Z,9.03
2019-02-21T02:37:48.349Z,9.05
2019-02-21T02:38:48.339Z,9.05
2019-02-21T02:39:48.325Z,9.08
2019-02-21T02:40:48.315Z,9.10
2019-02-21T02:41:48.303Z,9.10
2019-02-21T02:42:48.300Z,9.11
2019-02-21T02:43:48.281Z,9.14
2019-02-21T02:44:48.276Z,9.15
2019-02-21T02:45:48.296Z,9.16
2019-02-21T02:46:48.250Z,9.16
2019-02-21T02:47:48.242Z,9.18
2019-02-21T02:48:48.237Z,9.18
2019-02-21T02:49:48.219Z,9.19
2019-02-21T02:50:48.203Z,9.20
2019-02-21T02:51:48.192Z,9.21
2019-02-21T02:52:48.186Z,9.22
2019-02-21T02:53:48.168Z,9.21
2019-02-21T02:54:48.170Z,9.21
2019-02-21T02:55:48.160Z,9.22
2019-02-21T02:56:48.136Z,9.20
2019-02-21T02:57:48.126Z,9.21
2019-02-21T02:58:48.114Z,9.20
2019-02-21T02:59:48.105Z,9.20
2019-02-21T03:00:48.118Z,9.19
2019-02-21T03:01:48.081Z,9.17
2019-02-21T03:02:48.070Z,9.18
2019-02-21T03:03:48.059Z,9.16
2019-02-21T03:04:48.231Z,9.16
2019-02-21T03:05:48.039Z,9.14
2019-02-21T03:06:48.045Z,9.13
2019-02-21T03:07:48.014Z,9.12
2019-02-21T03:08:48.013Z,9.10
2019-02-21T03:09:47.992Z,9.10
2019-02-21T03:10:47.985Z,9.08
2019-02-21T03:11:51.541Z,9.05
2019-02-21T03:12:47.976Z,9.02
2019-02-21T03:13:47.954Z,9.01
2019-02-21T03:14:47.937Z,9.00
2019-02-21T03:15:47.926Z,8.96
2019-02-21T03:16:47.918Z,8.93
2019-02-21T03:17:47.907Z,8.92
2019-02-21T03:18:47.908Z,8.88
2019-02-21T03:19:47.883Z,8.88
2019-02-21T03:20:47.871Z,8.85
2019-02-21T03:21:47.860Z,8.83
2019-02-21T03:22:47.859Z,8.79
2019-02-21T03:23:47.840Z,8.78
2019-02-21T03:24:47.845Z,8.75
2019-02-21T03:25:47.843Z,8.73
2019-02-21T03:26:47.807Z,8.71
2019-02-21T03:27:47.806Z,8.69
2019-02-21T03:28:47.786Z,8.67
2019-02-21T03:29:47.775Z,8.66
2019-02-21T03:30:47.782Z,8.63
2019-02-21T03:31:54.560Z,8.60
2019-02-21T03:32:48.742Z,8.59
2019-02-21T03:33:47.896Z,8.58
2019-02-21T03:34:47.758Z,8.56
2019-02-21T03:35:47.718Z,8.54
2019-02-21T03:36:47.719Z,8.52
2019-02-21T03:37:47.690Z,8.50
2019-02-21T03:38:47.679Z,8.48
2019-02-21T03:39:47.670Z,8.47
2019-02-21T03:40:47.657Z,8.46
2019-02-21T03:41:47.648Z,8.45
2019-02-21T03:42:47.646Z,8.43
2019-02-21T03:43:47.626Z,8.42
2019-02-21T03:44:47.618Z,8.40
2019-02-21T03:45:47.609Z,8.37
2019-02-21T03:46:47.593Z,8.37
2019-02-21T03:47:47.583Z,8.35
2019-02-21T03:48:47.593Z,8.36
2019-02-21T03:49:47.562Z,8.33
2019-02-21T03:50:47.560Z,8.33
2019-02-21T03:51:47.540Z,8.30
2019-02-21T03:52:47.531Z,8.29
2019-02-21T03:53:47.519Z,8.27
2019-02-21T03:54:47.535Z,8.25
2019-02-21T03:55:47.499Z,8.25
2019-02-21T03:56:47.492Z,8.23
2019-02-21T03:57:47.478Z,8.22
2019-02-21T03:58:47.470Z,8.21
2019-02-21T03:59:47.459Z,8.20
2019-02-21T04:00:47.458Z,8.18
2019-02-21T04:01:47.436Z,8.17
2019-02-21T04:02:47.424Z,8.16
2019-02-21T04:03:47.415Z,8.16
2019-02-21T04:04:47.405Z,8.15
2019-02-21T04:05:47.396Z,8.14
2019-02-21T04:06:47.393Z,8.13
2019-02-21T04:07:47.378Z,8.12
2019-02-21T04:08:47.366Z,8.11
2019-02-21T04:09:47.354Z,8.10
2019-02-21T04:10:47.342Z,8.10
2019-02-21T04:11:47.331Z,8.08
2019-02-21T04:12:47.335Z,8.07
2019-02-21T04:13:47.309Z,8.07
2019-02-21T04:14:47.300Z,8.05
2019-02-21T04:15:47.289Z,8.04
2019-02-21T04:16:47.280Z,8.04
2019-02-21T04:17:47.267Z,8.03
2019-02-21T04:18:47.268Z,8.03
2019-02-21T04:19:47.246Z,8.01
2019-02-21T04:20:47.237Z,8.01
2019-02-21T04:21:47.227Z,8.02
2019-02-21T04:22:47.217Z,8.00
2019-02-21T04:23:47.204Z,8.01
2019-02-21T04:24:47.207Z,8.01
2019-02-21T04:25:47.183Z,8.02
2019-02-21T04:26:47.175Z,8.03
2019-02-21T04:27:47.164Z,8.01
2019-02-21T04:28:47.155Z,8.02
2019-02-21T04:29:47.144Z,8.03
2019-02-21T04:30:47.144Z,8.02
2019-02-21T04:31:47.123Z,8.02
2019-02-21T04:32:47.110Z,8.03
2019-02-21T04:33:47.103Z,8.03
2019-02-21T04:34:47.100Z,8.03
2019-02-21T04:35:47.080Z,8.01
2019-02-21T04:36:47.090Z,8.01
2019-02-21T04:37:47.163Z,8.00
2019-02-21T04:38:47.051Z,8.00
2019-02-21T04:39:47.036Z,8.00
2019-02-21T04:40:47.030Z,7.97
2019-02-21T04:41:47.016Z,7.96
2019-02-21T04:42:47.018Z,7.94
2019-02-21T04:43:47.003Z,7.93
2019-02-21T04:44:46.989Z,7.93
2019-02-21T04:45:46.973Z,7.91
2019-02-21T04:46:46.963Z,7.90
2019-02-21T04:47:46.968Z,7.89
2019-02-21T04:48:46.951Z,7.89
2019-02-21T04:49:46.934Z,7.87
2019-02-21T04:50:46.919Z,7.87
2019-02-21T04:51:46.910Z,7.87
2019-02-21T04:52:46.898Z,7.86
2019-02-21T04:53:46.888Z,7.84
2019-02-21T04:54:46.896Z,7.83
2019-02-21T04:55:46.867Z,7.83
2019-02-21T04:56:46.856Z,7.81
2019-02-21T04:57:46.845Z,7.79
2019-02-21T04:58:46.834Z,7.79
2019-02-21T04:59:46.827Z,7.78
2019-02-21T05:00:46.824Z,7.77
2019-02-21T05:01:46.802Z,7.76
2019-02-21T05:02:46.790Z,7.76
2019-02-21T05:03:46.780Z,7.74
2019-02-21T05:04:46.770Z,7.74
2019-02-21T05:05:46.759Z,7.72
2019-02-21T05:06:46.768Z,7.71
2019-02-21T05:07:46.738Z,7.72
2019-02-21T05:08:46.730Z,7.71
2019-02-21T05:09:57.527Z,7.68
2019-02-21T05:10:47.705Z,7.69
2019-02-21T05:11:46.694Z,7.68
2019-02-21T05:12:46.693Z,7.66
2019-02-21T05:13:46.672Z,7.66
2019-02-21T05:14:46.725Z,7.65
2019-02-21T05:15:46.652Z,7.65
2019-02-21T05:16:46.642Z,7.65
2019-02-21T05:17:46.633Z,7.63
2019-02-21T05:18:46.632Z,7.63
2019-02-21T05:19:46.625Z,7.63
2019-02-21T05:20:46.598Z,7.63
2019-02-21T05:21:46.586Z,7.62
2019-02-21T05:22:46.588Z,7.60
2019-02-21T05:23:46.734Z,7.61
2019-02-21T05:24:46.564Z,7.60
2019-02-21T05:25:46.544Z,7.59
2019-02-21T05:26:46.533Z,7.58
2019-02-21T05:27:46.532Z,7.57
2019-02-21T05:28:46.511Z,7.56
2019-02-21T05:29:46.499Z,7.55
2019-02-21T05:30:46.501Z,7.55
2019-02-21T05:31:46.478Z,7.51
2019-02-21T05:32:46.466Z,7.51
2019-02-21T05:33:46.465Z,7.51
2019-02-21T05:34:46.447Z,7.48
2019-02-21T05:35:46.434Z,7.47
2019-02-21T05:36:46.436Z,7.46
2019-02-21T05:37:46.412Z,7.45
2019-02-21T05:38:46.405Z,7.44
2019-02-21T05:39:46.392Z,7.44
2019-02-21T05:40:46.395Z,7.43
2019-02-21T05:41:46.370Z,7.43
2019-02-21T05:42:46.369Z,7.42
2019-02-21T05:43:46.348Z,7.43
2019-02-21T05:44:46.349Z,7.42
2019-02-21T05:45:46.979Z,7.41
2019-02-21T05:46:46.316Z,7.42
2019-02-21T05:47:46.305Z,7.41
2019-02-21T05:48:46.304Z,7.43
2019-02-21T05:49:46.284Z,7.43
2019-02-21T05:50:46.271Z,7.43
2019-02-21T05:51:46.260Z,7.44
2019-02-21T05:52:46.252Z,7.43
2019-02-21T05:53:46.239Z,7.44
2019-02-21T05:54:46.249Z,7.45
2019-02-21T05:55:46.216Z,7.45
2019-02-21T05:56:46.206Z,7.46
2019-02-21T05:57:46.196Z,7.45
2019-02-21T05:58:46.185Z,7.46
2019-02-21T05:59:46.175Z,7.46
2019-02-21T06:00:46.175Z,7.48
2019-02-21T06:01:46.152Z,7.46
2019-02-21T06:02:53.341Z,7.46
2019-02-21T06:03:47.129Z,7.46
2019-02-21T06:04:46.120Z,7.48
2019-02-21T06:05:46.110Z,7.46
2019-02-21T06:06:46.111Z,7.45
2019-02-21T06:07:46.087Z,7.45
2019-02-21T06:08:46.082Z,7.45
2019-02-21T06:09:46.067Z,7.45
2019-02-21T06:10:46.054Z,7.45
2019-02-21T06:11:46.047Z,7.46
2019-02-21T06:12:46.047Z,7.47
2019-02-21T06:13:46.022Z,7.48
2019-02-21T06:14:46.014Z,7.51
2019-02-21T06:15:46.000Z,7.53
2019-02-21T06:16:45.989Z,7.56
2019-02-21T06:17:45.979Z,7.57
2019-02-21T06:18:45.989Z,7.61
2019-02-21T06:19:48.056Z,7.63
2019-02-21T06:20:45.948Z,7.66
2019-02-21T06:21:45.935Z,7.67
2019-02-21T06:22:45.939Z,7.70
2019-02-21T06:23:45.919Z,7.73
2019-02-21T06:24:45.919Z,7.74
2019-02-21T06:25:53.017Z,7.75
2019-02-21T06:26:46.882Z,7.77
2019-02-21T06:27:45.869Z,7.78
2019-02-21T06:28:45.859Z,7.79
2019-02-21T06:29:45.848Z,7.79
2019-02-21T06:30:45.858Z,7.78
2019-02-21T06:31:45.827Z,7.79
2019-02-21T06:32:45.815Z,7.80
2019-02-21T06:33:45.807Z,7.79
2019-02-21T06:34:45.794Z,7.80
2019-02-21T06:35:45.785Z,7.79
2019-02-21T06:36:45.831Z,7.81
2019-02-21T06:37:45.764Z,7.82
2019-02-21T06:38:45.753Z,7.84
2019-02-21T06:39:45.741Z,7.86
2019-02-21T06:40:47.058Z,7.88
2019-02-21T06:41:45.720Z,7.91
2019-02-21T06:42:45.741Z,7.94
2019-02-21T06:43:45.701Z,7.99
2019-02-21T06:44:45.692Z,8.03
2019-02-21T06:45:45.677Z,8.07
2019-02-21T06:46:45.666Z,8.12
2019-02-21T06:47:45.660Z,8.17
2019-02-21T06:48:45.655Z,8.20
2019-02-21T06:49:45.634Z,8.25
2019-02-21T06:50:47.601Z,8.30
2019-02-21T06:51:45.611Z,8.35
2019-02-21T06:52:45.602Z,8.38
2019-02-21T06:53:45.590Z,8.42
2019-02-21T06:54:45.592Z,8.46
2019-02-21T06:55:45.571Z,8.47
2019-02-21T06:56:45.561Z,8.53
2019-02-21T06:57:45.549Z,8.54
2019-02-21T06:58:45.538Z,8.59
2019-02-21T06:59:45.598Z,8.62
2019-02-21T07:00:46.313Z,8.66
2019-02-21T07:01:45.506Z,8.69
2019-02-21T07:02:45.496Z,8.74
2019-02-21T07:03:45.488Z,8.77
2019-02-21T07:04:45.475Z,8.81
2019-02-21T07:05:45.465Z,8.83
2019-02-21T07:06:45.464Z,8.86
2019-02-21T07:07:45.443Z,8.89
2019-02-21T07:08:45.432Z,8.93
2019-02-21T07:09:45.427Z,8.98
2019-02-21T07:10:45.412Z,9.05
2019-02-21T07:11:46.108Z,9.11
2019-02-21T07:12:45.437Z,9.16
2019-02-21T07:13:45.449Z,9.23
2019-02-21T07:14:45.412Z,9.27
2019-02-21T07:15:45.358Z,9.33
2019-02-21T07:16:45.351Z,9.38
2019-02-21T07:17:49.356Z,9.40
2019-02-21T07:18:45.337Z,9.42
2019-02-21T07:19:45.318Z,9.44
2019-02-21T07:20:45.304Z,9.47
2019-02-21T07:21:45.298Z,9.51
2019-02-21T07:22:45.285Z,9.53
2019-02-21T07:23:45.273Z,9.56
2019-02-21T07:24:45.271Z,9.60
2019-02-21T07:25:45.272Z,9.65
2019-02-21T07:26:45.237Z,9.69
2019-02-21T07:27:45.244Z,9.71
2019-02-21T07:28:45.216Z,9.71
2019-02-21T07:29:45.204Z,9.74
2019-02-21T07:30:45.208Z,9.76
2019-02-21T07:31:45.184Z,9.78
2019-02-21T07:32:45.181Z,9.82
2019-02-21T07:33:45.161Z,9.84
2019-02-21T07:34:45.151Z,9.90
2019-02-21T07:35:45.139Z,9.92
2019-02-21T07:36:45.139Z,9.97
2019-02-21T07:37:45.124Z,10.00
2019-02-21T07:38:45.125Z,10.03
2019-02-21T07:39:45.096Z,10.07
2019-02-21T07:40:45.085Z,10.11
2019-02-21T07:41:45.075Z,10.15
2019-02-21T07:42:45.075Z,10.18
2019-02-21T07:43:45.116Z,10.24
2019-02-21T07:44:45.460Z,10.27
2019-02-21T07:45:45.032Z,10.32
2019-02-21T07:46:46.361Z,10.36
2019-02-21T07:47:45.095Z,10.40
2019-02-21T07:48:45.044Z,10.43
2019-02-21T07:49:44.990Z,10.45
2019-02-21T07:50:44.980Z,10.47
2019-02-21T07:51:44.969Z,10.47
2019-02-21T07:52:44.960Z,10.47
2019-02-21T07:53:44.955Z,10.47
2019-02-21T07:54:44.957Z,10.47
2019-02-21T07:55:44.931Z,10.49
2019-02-21T07:56:45.002Z,10.49
2019-02-21T07:57:44.906Z,10.49
2019-02-21T07:58:44.904Z,10.47
2019-02-21T07:59:44.885Z,10.49
2019-02-21T08:00:44.896Z,10.50
2019-02-21T08:01:44.865Z,10.52
2019-02-21T08:02:44.854Z,10.53
2019-02-21T08:03:48.104Z,10.56
2019-02-21T08:04:44.832Z,10.57
2019-02-21T08:05:44.821Z,10.58
2019-02-21T08:06:44.824Z,10.61
2019-02-21T08:07:44.800Z,10.63
2019-02-21T08:08:45.123Z,10.65
2019-02-21T08:09:44.779Z,10.68
2019-02-21T08:10:44.769Z,10.73
2019-02-21T08:11:44.757Z,10.79
2019-02-21T08:12:44.761Z,10.82
2019-02-21T08:13:44.755Z,10.87
2019-02-21T08:14:44.736Z,10.92
2019-02-21T08:15:44.716Z,10.95
2019-02-21T08:16:44.704Z,10.98
2019-02-21T08:17:44.693Z,11.01
2019-02-21T08:18:44.699Z,11.06
2019-02-21T08:19:44.674Z,11.11
2019-02-21T08:20:44.661Z,11.19
2019-02-21T08:21:44.685Z,11.26
2019-02-21T08:22:44.638Z,11.35
2019-02-21T08:23:50.623Z,11.46
2019-02-21T08:24:45.627Z,11.58
2019-02-21T08:25:44.606Z,11.69
2019-02-21T08:26:44.595Z,11.81
2019-02-21T08:27:44.584Z,11.94
2019-02-21T08:28:44.572Z,12.08
2019-02-21T08:29:44.566Z,12.22
2019-02-21T08:30:44.563Z,12.38
2019-02-21T08:31:44.541Z,12.51
2019-02-21T08:32:44.529Z,12.62
2019-02-21T08:33:47.102Z,12.67
2019-02-21T08:34:48.036Z,12.69
2019-02-21T08:35:44.500Z,12.70
2019-02-21T08:36:44.496Z,12.66
2019-02-21T08:37:44.474Z,12.63
2019-02-21T08:38:44.468Z,12.60
2019-02-21T08:39:44.453Z,12.56
2019-02-21T08:40:44.442Z,12.52
2019-02-21T08:41:44.433Z,12.48
2019-02-21T08:42:44.432Z,12.43
2019-02-21T08:43:44.412Z,12.38
2019-02-21T08:44:44.399Z,12.34
2019-02-21T08:45:44.389Z,12.28
2019-02-21T08:46:44.378Z,12.21
2019-02-21T08:47:44.367Z,12.16
2019-02-21T08:48:44.367Z,12.12
2019-02-21T08:49:44.346Z,12.11
2019-02-21T08:50:44.338Z,12.13
2019-02-21T08:51:44.325Z,12.18
2019-02-21T08:52:44.316Z,12.25
2019-02-21T08:53:44.306Z,12.34
2019-02-21T08:54:44.304Z,12.47
2019-02-21T08:55:44.282Z,12.60
2019-02-21T08:56:44.272Z,12.73
2019-02-21T08:57:44.261Z,12.82
2019-02-21T08:58:44.251Z,12.89
2019-02-21T08:59:44.245Z,12.94
2019-02-21T09:00:44.239Z,13.02
2019-02-21T09:01:44.224Z,13.10
2019-02-21T09:02:44.207Z,13.21
2019-02-21T09:03:44.197Z,13.28
2019-02-21T09:04:44.188Z,13.32
2019-02-21T09:05:44.174Z,13.26
2019-02-21T09:06:44.174Z,13.22
2019-02-21T09:07:46.166Z,13.14
2019-02-21T09:08:44.142Z,13.10
2019-02-21T09:09:44.132Z,13.07
2019-02-21T09:10:44.123Z,13.06
2019-02-21T09:11:44.111Z,13.05
2019-02-21T09:12:48.194Z,13.03
2019-02-21T09:13:44.088Z,13.01
2019-02-21T09:14:44.081Z,13.01
2019-02-21T09:15:46.459Z,12.99
2019-02-21T09:16:44.056Z,13.00
2019-02-21T09:17:44.049Z,13.01
2019-02-21T09:18:44.045Z,13.01
2019-02-21T09:19:44.024Z,13.03
2019-02-21T09:20:44.014Z,13.03
2019-02-21T09:21:44.006Z,13.01
2019-02-21T09:22:44.017Z,12.95
2019-02-21T09:23:43.981Z,12.91
2019-02-21T09:24:43.984Z,12.85
2019-02-21T09:25:43.959Z,12.79
2019-02-21T09:26:43.951Z,12.74
2019-02-21T09:27:43.964Z,12.73
2019-02-21T09:28:43.928Z,12.73
2019-02-21T09:29:44.006Z,12.72
2019-02-21T09:30:43.916Z,12.72
2019-02-21T09:31:43.895Z,12.73
2019-02-21T09:32:43.884Z,12.74
2019-02-21T09:33:43.996Z,12.76
2019-02-21T09:34:43.863Z,12.78
2019-02-21T09:35:43.854Z,12.79
2019-02-21T09:36:43.853Z,12.79
2019-02-21T09:37:43.832Z,12.79
2019-02-21T09:38:43.819Z,12.79
2019-02-21T09:39:43.809Z,12.81
2019-02-21T09:40:43.808Z,12.85
2019-02-21T09:41:43.786Z,12.94
2019-02-21T09:42:43.791Z,13.06
2019-02-21T09:43:43.765Z,13.26
2019-02-21T09:44:43.754Z,13.49
2019-02-21T09:45:43.747Z,13.75
2019-02-21T09:46:43.732Z,13.95
2019-02-21T09:47:43.722Z,14.14
2019-02-21T09:48:43.734Z,14.35
2019-02-21T09:49:43.699Z,14.54
2019-02-21T09:50:43.687Z,14.64
2019-02-21T09:51:43.677Z,14.69
2019-02-21T09:52:43.668Z,14.67
2019-02-21T09:53:43.655Z,14.63
2019-02-21T09:54:43.658Z,14.58
2019-02-21T09:55:43.634Z,14.55
2019-02-21T09:56:52.339Z,14.57
2019-02-21T09:57:44.613Z,14.61
2019-02-21T09:58:45.792Z,14.65
2019-02-21T09:59:43.670Z,14.71
2019-02-21T10:00:43.592Z,14.76
2019-02-21T10:01:43.570Z,14.89
2019-02-21T10:02:43.567Z,15.00
2019-02-21T10:03:44.354Z,15.10
2019-02-21T10:04:43.542Z,15.18
2019-02-21T10:05:43.528Z,15.21
2019-02-21T10:06:43.527Z,15.25
2019-02-21T10:07:43.511Z,15.30
2019-02-21T10:08:43.585Z,15.31
2019-02-21T10:09:43.516Z,15.32
2019-02-21T10:10:43.479Z,15.36
2019-02-21T10:11:43.466Z,15.42
2019-02-21T10:12:43.471Z,15.49
2019-02-21T10:13:43.441Z,15.46
2019-02-21T10:14:43.431Z,15.42
2019-02-21T10:15:43.421Z,15.41
2019-02-21T10:16:43.409Z,15.46
2019-02-21T10:17:43.399Z,15.57
2019-02-21T10:18:43.401Z,15.64
2019-02-21T10:19:43.375Z,15.67
2019-02-21T10:20:43.366Z,15.68
2019-02-21T10:21:43.353Z,15.71
2019-02-21T10:22:43.352Z,15.75
2019-02-21T10:23:43.331Z,15.81
2019-02-21T10:24:43.337Z,15.85
2019-02-21T10:25:43.309Z,15.88
2019-02-21T10:26:43.297Z,15.92
2019-02-21T10:27:43.287Z,15.94
2019-02-21T10:28:45.111Z,15.93
2019-02-21T10:29:43.274Z,15.89
2019-02-21T10:30:43.267Z,15.85
2019-02-21T10:31:43.243Z,15.81
2019-02-21T10:32:43.232Z,15.78
2019-02-21T10:33:46.871Z,15.81
2019-02-21T10:34:43.581Z,15.85
2019-02-21T10:35:43.199Z,15.88
2019-02-21T10:36:43.206Z,15.92
2019-02-21T10:37:43.177Z,15.90
2019-02-21T10:38:43.168Z,15.87
2019-02-21T10:39:43.155Z,15.82
2019-02-21T10:40:43.143Z,15.78
2019-02-21T10:41:43.133Z,15.75
2019-02-21T10:42:43.136Z,15.73
2019-02-21T10:43:43.114Z,15.71
2019-02-21T10:44:43.099Z,15.67
2019-02-21T10:45:47.687Z,15.65
2019-02-21T10:46:44.076Z,15.64
2019-02-21T10:47:43.075Z,15.65
2019-02-21T10:48:43.073Z,15.65
2019-02-21T10:49:43.044Z,15.65
2019-02-21T10:50:43.032Z,15.66
2019-02-21T10:51:43.022Z,15.70
2019-02-21T10:52:43.011Z,15.74
2019-02-21T10:53:43.000Z,15.79
2019-02-21T10:54:43.019Z,15.82
2019-02-21T10:55:42.977Z,15.86
2019-02-21T10:56:42.968Z,15.91
2019-02-21T10:57:45.300Z,15.95
2019-02-21T10:58:42.952Z,15.99
2019-02-21T10:59:46.607Z,16.02
2019-02-21T11:00:42.935Z,16.05
2019-02-21T11:01:42.913Z,16.08
2019-02-21T11:02:42.902Z,16.12
2019-02-21T11:03:42.892Z,16.19
2019-02-21T11:04:54.150Z,16.30
2019-02-21T11:05:43.881Z,16.38
2019-02-21T11:06:42.863Z,16.46
2019-02-21T11:07:42.851Z,16.58
2019-02-21T11:08:42.840Z,16.70
2019-02-21T11:09:42.833Z,16.81
2019-02-21T11:10:42.820Z,16.90
2019-02-21T11:11:42.824Z,16.99
2019-02-21T11:12:42.795Z,17.03
2019-02-21T11:13:42.831Z,17.05
2019-02-21T11:14:47.569Z,16.99
2019-02-21T11:15:43.764Z,16.90
2019-02-21T11:16:42.751Z,16.80
2019-02-21T11:17:42.752Z,16.68
2019-02-21T11:18:42.730Z,16.54
2019-02-21T11:19:42.777Z,16.42
2019-02-21T11:20:42.709Z,16.32
2019-02-21T11:21:42.697Z,16.23
2019-02-21T11:22:42.687Z,16.15
2019-02-21T11:23:42.686Z,16.06
2019-02-21T11:24:42.665Z,15.97
2019-02-21T11:25:42.654Z,15.89
2019-02-21T11:26:42.643Z,15.82
2019-02-21T11:27:42.633Z,15.77
2019-02-21T11:28:42.624Z,15.73
2019-02-21T11:29:42.621Z,15.72
2019-02-21T11:30:42.600Z,15.71
2019-02-21T11:31:42.589Z,15.72
2019-02-21T11:32:42.580Z,15.72
2019-02-21T11:33:42.569Z,15.74
2019-02-21T11:34:42.561Z,15.78
2019-02-21T11:35:42.559Z,15.83
2019-02-21T11:36:42.536Z,15.86
2019-02-21T11:37:46.284Z,15.90
2019-02-21T11:38:42.515Z,15.93
2019-02-21T11:39:42.503Z,15.95
2019-02-21T11:40:42.493Z,15.98
2019-02-21T11:41:42.493Z,15.99
2019-02-21T11:42:42.472Z,16.00
2019-02-21T11:43:42.463Z,16.03
2019-02-21T11:44:42.450Z,16.04
2019-02-21T11:45:53.160Z,16.06
2019-02-21T11:46:43.438Z,16.05
2019-02-21T11:47:42.418Z,16.05
2019-02-21T11:48:42.413Z,16.06
2019-02-21T11:49:42.404Z,16.10
2019-02-21T11:50:42.385Z,16.13
2019-02-21T11:51:42.374Z,16.13
2019-02-21T11:52:42.375Z,16.13
2019-02-21T11:53:42.354Z,16.15
2019-02-21T11:54:42.344Z,16.16
2019-02-21T11:55:42.334Z,16.20
2019-02-21T11:56:42.322Z,16.24
2019-02-21T11:57:42.371Z,16.29
2019-02-21T11:58:42.309Z,16.35
2019-02-21T11:59:42.288Z,16.38
2019-02-21T12:00:42.280Z,16.42
2019-02-21T12:01:42.268Z,16.45
2019-02-21T12:02:42.260Z,16.45
2019-02-21T12:03:42.248Z,16.45
2019-02-21T12:04:42.246Z,16.44
2019-02-21T12:05:42.225Z,16.41
2019-02-21T12:06:42.216Z,16.38
2019-02-21T12:07:42.206Z,16.36
2019-02-21T12:08:42.199Z,16.35
2019-02-21T12:09:42.182Z,16.34
2019-02-21T12:10:42.181Z,16.35
2019-02-21T12:11:42.161Z,16.33
2019-02-21T12:12:42.150Z,16.29
2019-02-21T12:13:42.139Z,16.25
2019-02-21T12:14:42.128Z,16.21
2019-02-21T12:15:42.123Z,16.16
2019-02-21T12:16:42.130Z,16.15
2019-02-21T12:17:43.071Z,16.13
2019-02-21T12:18:42.085Z,16.12
2019-02-21T12:19:42.075Z,16.13
2019-02-21T12:20:42.066Z,16.16
2019-02-21T12:21:42.052Z,16.20
2019-02-21T12:22:42.052Z,16.22
2019-02-21T12:23:42.031Z,16.24
2019-02-21T12:24:42.021Z,16.25
2019-02-21T12:25:42.009Z,16.29
2019-02-21T12:26:41.998Z,16.31
2019-02-21T12:27:41.990Z,16.36
2019-02-21T12:28:41.987Z,16.38
2019-02-21T12:29:41.965Z,16.42
2019-02-21T12:30:41.955Z,16.46
2019-02-21T12:31:41.947Z,16.49
2019-02-21T12:32:41.933Z,16.54
2019-02-21T12:33:41.943Z,16.61
2019-02-21T12:34:41.924Z,16.67
2019-02-21T12:35:41.901Z,16.72
2019-02-21T12:36:41.891Z,16.79
2019-02-21T12:37:41.881Z,16.82
2019-02-21T12:38:41.869Z,16.84
2019-02-21T12:39:41.857Z,16.87
2019-02-21T12:40:41.858Z,16.90
2019-02-21T12:41:41.835Z,16.94
2019-02-21T12:42:41.824Z,16.97
2019-02-21T12:43:41.813Z,17.00
2019-02-21T12:44:41.801Z,17.01
2019-02-21T12:45:41.791Z,17.01
2019-02-21T12:46:41.792Z,17.02
2019-02-21T12:47:49.667Z,17.04
2019-02-21T12:48:42.757Z,17.06
2019-02-21T12:49:41.747Z,17.10
2019-02-21T12:50:44.543Z,17.12
2019-02-21T12:51:41.724Z,17.12
2019-02-21T12:52:41.725Z,17.13
2019-02-21T12:53:41.705Z,17.13
2019-02-21T12:54:41.692Z,17.14
2019-02-21T12:55:41.686Z,17.15
2019-02-21T12:56:41.672Z,17.17
2019-02-21T12:57:41.658Z,17.18
2019-02-21T12:58:41.658Z,17.21
2019-02-21T12:59:41.637Z,17.25
2019-02-21T13:00:41.631Z,17.27
2019-02-21T13:01:41.614Z,17.28
2019-02-21T13:02:41.603Z,17.29
2019-02-21T13:03:41.593Z,17.29
2019-02-21T13:04:41.594Z,17.26
2019-02-21T13:05:44.326Z,17.24
2019-02-21T13:06:41.561Z,17.20
2019-02-21T13:07:41.555Z,17.17